Thorne Bay, Alaska
Current Conditions -  °F | °C
As of 6:25 AM on Wednesday 26 Nov 2014 (Local Time) from PAKW Reporting Station
Scattered Clouds Scattered Clouds  
Wind Chill: 29°   Ceiling: Unl
Heat Index: 35°   Visibility: 10mi
Dew Point: 31°   Wind: 8mph
Humidity: 85%   Direction: 50°NE
Pressure: 30.1"   Gusts: NA
Location:  55.69°N, 132.52°W
Report Text: PAKW 261525Z AUTO 05007KT 10SM SCT019 02/M01 A3010 RMK AO2 I1000 T00171006 TSNO $
Loading
Personal Weather Stations






























Interactive Weather Map New forecast layout! Learn more

10-Day Weather Forecast

Advertisements
Track Severe Weather on mobile